Time;durP1;ratioP1;P1;durP2;ratioP2;P2;SDS_P1;SDS_P2;PMS_P1;PMS_P2;Temp;Humidity;BMP_temperature;BMP_pressure;BME280_temperature;BME280_humidity;BME280_pressure;Samples;Min_cycle;Max_cycle;Signal;HPM_P1;HPM_P2
2023/08/06 00:00:53;;;;;;;1.08;0.80;;;;;;;26.63;44.38;100321.47;4903420;28;97143;-77
2023/08/06 00:03:20;;;;;;;0.93;0.80;;;;;;;26.63;44.12;100321.47;4909450;28;96758;-77
2023/08/06 00:05:47;;;;;;;1.42;0.82;;;;;;;26.62;44.32;100320.63;4912874;28;98011;-76
2023/08/06 00:08:13;;;;;;;1.15;0.95;;;;;;;26.63;44.27;100321.47;4912584;28;97505;-76
2023/08/06 00:10:41;;;;;;;1.58;0.90;;;;;;;26.63;44.21;100315.97;4909902;28;96687;-76
2023/08/06 00:13:07;;;;;;;0.93;0.82;;;;;;;26.63;43.97;100315.97;4912020;28;96971;-76
2023/08/06 00:15:34;;;;;;;0.80;0.80;;;;;;;26.62;44.20;100311.53;4912185;28;96754;-77
2023/08/06 00:18:01;;;;;;;0.82;0.80;;;;;;;26.62;44.27;100308.78;4908657;28;96691;-77
2023/08/06 00:20:27;;;;;;;1.00;0.90;;;;;;;26.62;44.15;100309.59;4911259;28;97755;-76
2023/08/06 00:22:54;;;;;;;0.77;0.73;;;;;;;26.61;44.33;100305.16;4913378;28;96843;-76
2023/08/06 00:25:20;;;;;;;0.85;0.75;;;;;;;26.60;44.29;100298.81;4909682;28;97231;-76
2023/08/06 00:27:47;;;;;;;1.00;0.90;;;;;;;26.60;44.25;100298.81;4913857;28;97785;-76
2023/08/06 00:30:14;;;;;;;1.02;0.80;;;;;;;26.60;44.20;100298.81;4910524;28;96756;-77
2023/08/06 00:32:40;;;;;;;0.90;0.80;;;;;;;26.60;44.19;100301.56;4910637;28;97184;-76
2023/08/06 00:35:07;;;;;;;0.77;0.65;;;;;;;26.60;44.20;100289.72;4904940;28;98083;-77
2023/08/06 00:37:34;;;;;;;1.10;0.88;;;;;;;26.60;44.67;100297.97;4911671;28;97323;-76
2023/08/06 00:40:00;;;;;;;1.08;0.82;;;;;;;26.60;44.14;100297.97;4912365;28;96778;-77
2023/08/06 00:42:27;;;;;;;1.02;0.77;;;;;;;26.60;44.16;100293.31;4912554;28;97333;-76
2023/08/06 00:44:53;;;;;;;0.88;0.80;;;;;;;26.59;43.96;100291.63;4911217;28;100270;-77
2023/08/06 00:47:20;;;;;;;0.90;0.80;;;;;;;26.59;44.26;100288.88;4910862;28;98323;-76
2023/08/06 00:49:47;;;;;;;1.20;0.60;;;;;;;26.59;44.08;100283.38;4903981;28;96675;-76
2023/08/06 00:52:14;;;;;;;1.50;1.05;;;;;;;26.59;44.21;100291.63;4906795;28;97256;-76
2023/08/06 00:54:40;;;;;;;0.85;0.70;;;;;;;26.60;44.21;100298.81;4911397;28;97141;-76
2023/08/06 00:57:09;;;;;;;1.30;0.80;;;;;;;26.60;44.26;100297.97;4907482;28;97631;-77
2023/08/06 00:59:35;;;;;;;1.05;0.70;;;;;;;26.59;44.10;100291.63;4904047;28;96827;-76
2023/08/06 01:02:03;;;;;;;1.00;0.70;;;;;;;26.59;44.28;100296.28;4907725;28;97816;-76
2023/08/06 01:04:30;;;;;;;1.20;0.80;;;;;;;26.59;44.11;100294.38;4910550;28;98108;-76
2023/08/06 01:07:17;;;;;;;0.70;0.70;;;;;;;26.59;44.18;100294.38;4911111;28;99609;-76
2023/08/06 01:09:50;;;;;;;0.88;0.70;;;;;;;26.58;44.27;100291.84;4907820;28;96742;-76
2023/08/06 01:12:22;;;;;;;1.00;0.80;;;;;;;26.59;44.32;100297.13;4911016;28;96846;-77
2023/08/06 01:15:24;;;;;;;1.13;0.90;;;;;;;26.58;44.44;100295.44;4910013;28;97090;-76
2023/08/06 01:17:52;;;;;;;1.00;0.80;;;;;;;26.57;44.25;100291.00;4885366;28;96791;-76
2023/08/06 01:20:18;;;;;;;1.63;0.80;;;;;;;26.57;44.41;100299.28;4911055;28;96862;-76
2023/08/06 01:22:45;;;;;;;0.75;0.70;;;;;;;26.57;44.65;100284.66;4912071;28;97486;-76
2023/08/06 01:25:16;;;;;;;0.95;0.70;;;;;;;26.56;44.17;100275.56;4907924;28;97723;-76
2023/08/06 01:27:46;;;;;;;1.17;0.90;;;;;;;26.56;44.34;100274.72;4910802;28;98190;-77
2023/08/06 01:30:22;;;;;;;1.00;0.80;;;;;;;26.56;44.42;100278.31;4895153;28;97075;-76
2023/08/06 01:32:53;;;;;;;1.02;0.85;;;;;;;26.56;44.47;100281.06;4907601;28;96898;-76
2023/08/06 01:35:21;;;;;;;1.10;0.82;;;;;;;26.56;44.36;100274.72;4906522;28;100345;-76
2023/08/06 01:37:48;;;;;;;0.95;0.80;;;;;;;26.56;44.39;100282.97;4894514;28;98719;-76
2023/08/06 01:40:15;;;;;;;1.00;0.80;;;;;;;26.56;44.43;100281.06;4894114;28;98484;-76
2023/08/06 01:42:41;;;;;;;1.17;0.85;;;;;;;26.56;44.52;100281.06;4910802;28;96677;-77
2023/08/06 01:45:09;;;;;;;1.25;0.70;;;;;;;26.57;44.33;100284.66;4891249;28;97547;-77
2023/08/06 01:47:36;;;;;;;0.70;0.70;;;;;;;26.57;44.18;100276.41;4910310;28;97969;-76
2023/08/06 01:50:03;;;;;;;1.50;0.90;;;;;;;26.57;44.19;100279.16;4908258;28;96849;-76
2023/08/06 01:52:29;;;;;;;0.80;0.80;;;;;;;26.56;44.06;100281.06;4910898;28;96749;-76
2023/08/06 01:54:56;;;;;;;1.13;0.80;;;;;;;26.56;44.27;100280.22;4909910;28;98764;-76
2023/08/06 01:57:23;;;;;;;1.30;0.90;;;;;;;26.56;44.41;100280.22;4909053;28;96873;-77
2023/08/06 01:59:50;;;;;;;0.93;0.80;;;;;;;26.56;43.99;100274.72;4910421;28;96642;-76
2023/08/06 02:02:16;;;;;;;1.52;1.00;;;;;;;26.55;44.30;100281.28;4910293;28;97345;-76
2023/08/06 02:04:43;;;;;;;1.00;0.90;;;;;;;26.56;44.36;100275.56;4904713;28;100370;-76
2023/08/06 02:07:11;;;;;;;1.65;0.70;;;;;;;26.55;44.31;100273.88;4911219;28;96798;-76
2023/08/06 02:09:37;;;;;;;1.00;0.77;;;;;;;26.54;44.19;100274.94;4910608;28;96824;-76
2023/08/06 02:12:04;;;;;;;0.90;0.80;;;;;;;26.55;44.36;100271.13;4911069;28;96920;-76
2023/08/06 02:14:31;;;;;;;1.20;0.80;;;;;;;26.55;44.40;100282.13;4908911;28;99955;-76
2023/08/06 02:16:58;;;;;;;0.70;0.60;;;;;;;26.54;44.66;100283.19;4910063;28;99289;-76
2023/08/06 02:19:25;;;;;;;0.80;0.70;;;;;;;26.55;44.23;100278.53;4906189;28;97307;-76
2023/08/06 02:21:51;;;;;;;0.75;0.60;;;;;;;26.55;44.37;100281.28;4911644;28;96791;-76
2023/08/06 02:24:18;;;;;;;1.05;0.77;;;;;;;26.55;44.50;100286.81;4910276;28;98126;-77
2023/08/06 02:26:45;;;;;;;0.80;0.60;;;;;;;26.55;44.42;100273.03;4909971;28;97705;-76
2023/08/06 02:29:12;;;;;;;0.88;0.68;;;;;;;26.54;44.29;100274.94;4909021;28;96863;-76
2023/08/06 02:31:38;;;;;;;1.45;0.70;;;;;;;26.54;44.35;100276.84;4907150;28;97122;-76
2023/08/06 02:34:05;;;;;;;0.68;0.55;;;;;;;26.54;44.16;100272.19;4904885;28;100927;-76
2023/08/06 02:36:31;;;;;;;1.05;0.80;;;;;;;26.54;44.15;100263.09;4909334;28;97803;-76
2023/08/06 02:38:58;;;;;;;1.33;0.80;;;;;;;26.53;44.47;100262.25;4911323;28;96930;-76
2023/08/06 02:41:25;;;;;;;1.23;0.90;;;;;;;26.53;44.13;100259.47;4910806;28;96818;-76
2023/08/06 02:43:52;;;;;;;0.70;0.70;;;;;;;26.53;44.30;100261.41;4909772;28;97893;-76
2023/08/06 02:46:19;;;;;;;0.88;0.82;;;;;;;26.52;44.26;100260.56;4908777;28;97435;-76
2023/08/06 02:48:46;;;;;;;1.13;0.70;;;;;;;26.53;44.41;100267.75;4903364;28;97277;-76
2023/08/06 02:51:12;;;;;;;0.70;0.60;;;;;;;26.52;44.37;100256.97;4909439;28;96639;-76
2023/08/06 02:53:39;;;;;;;1.00;0.90;;;;;;;26.53;44.27;100258.66;4910255;28;100657;-77
2023/08/06 02:56:09;;;;;;;0.98;0.70;;;;;;;26.52;44.36;100257.81;4912633;28;97557;-76
2023/08/06 02:58:49;;;;;;;1.00;0.70;;;;;;;26.52;44.35;100260.56;4913053;28;96846;-76
2023/08/06 03:01:28;;;;;;;0.70;0.60;;;;;;;26.51;44.26;100256.13;4913196;28;98970;-77
2023/08/06 03:04:00;;;;;;;1.38;0.93;;;;;;;26.51;44.51;100256.13;4912467;28;97756;-76
2023/08/06 03:06:33;;;;;;;1.00;0.80;;;;;;;26.51;44.34;100260.78;4912694;28;98525;-76
2023/08/06 03:09:01;;;;;;;0.80;0.70;;;;;;;26.51;44.24;100255.28;4913308;28;97023;-76
2023/08/06 03:11:28;;;;;;;1.42;0.82;;;;;;;26.51;44.38;100252.53;4912676;28;96839;-76
2023/08/06 03:14:00;;;;;;;0.70;0.70;;;;;;;26.50;44.42;100246.19;4911511;28;97796;-76
2023/08/06 03:16:26;;;;;;;0.90;0.80;;;;;;;26.51;44.22;100236.84;4910830;28;99382;-76
2023/08/06 03:18:53;;;;;;;0.95;0.75;;;;;;;26.50;44.33;100242.56;4911366;28;96635;-77
2023/08/06 03:21:20;;;;;;;1.10;0.80;;;;;;;26.51;44.43;100249.78;4912722;28;96861;-77
2023/08/06 03:23:48;;;;;;;0.90;0.75;;;;;;;26.51;44.38;100247.84;4911991;28;99495;-76
2023/08/06 03:26:17;;;;;;;0.90;0.80;;;;;;;26.51;44.51;100238.75;4905676;28;99813;-76
2023/08/06 03:28:45;;;;;;;1.00;0.70;;;;;;;26.51;44.03;100236.00;4913485;28;96752;-76
2023/08/06 03:31:12;;;;;;;0.60;0.52;;;;;;;26.51;44.48;100247.00;4912045;28;97221;-76
2023/08/06 03:33:42;;;;;;;0.82;0.65;;;;;;;26.50;44.28;100242.56;4907992;28;99306;-77
2023/08/06 03:36:14;;;;;;;0.82;0.82;;;;;;;26.49;43.98;100241.72;4896439;28;100616;-76
2023/08/06 03:38:41;;;;;;;0.77;0.73;;;;;;;26.49;44.03;100236.22;4912577;28;96939;-77
2023/08/06 03:41:10;;;;;;;0.90;0.80;;;;;;;26.51;44.28;100249.78;4912246;28;97076;-76
2023/08/06 03:43:37;;;;;;;0.57;0.57;;;;;;;26.50;44.36;100245.34;4904029;28;99612;-77
2023/08/06 03:46:08;;;;;;;1.55;0.60;;;;;;;26.49;44.70;100235.38;4910870;28;98813;-76
2023/08/06 03:48:34;;;;;;;0.90;0.77;;;;;;;26.49;44.38;100246.41;4913927;28;96844;-77
2023/08/06 03:51:02;;;;;;;1.02;0.77;;;;;;;26.49;44.37;100247.25;4911936;28;96780;-77
2023/08/06 03:53:28;;;;;;;0.93;0.80;;;;;;;26.48;44.15;100240.06;4895806;28;96949;-76
2023/08/06 03:55:59;;;;;;;1.35;0.70;;;;;;;26.48;44.25;100234.53;4911361;28;99098;-76
2023/08/06 03:58:26;;;;;;;1.10;0.82;;;;;;;26.48;44.39;100234.53;4909988;28;96640;-76
2023/08/06 04:01:03;;;;;;;1.15;0.80;;;;;;;26.48;44.40;100234.53;4911991;28;97047;-77
2023/08/06 04:03:36;;;;;;;1.13;0.80;;;;;;;26.48;44.45;100242.81;4899032;28;100195;-76
2023/08/06 04:06:03;;;;;;;1.40;0.70;;;;;;;26.48;44.40;100242.81;4910049;28;98279;-76
2023/08/06 04:08:30;;;;;;;0.90;0.70;;;;;;;26.48;44.64;100244.72;4911461;28;96795;-76
2023/08/06 04:10:56;;;;;;;0.80;0.65;;;;;;;26.47;44.45;100245.78;4911422;28;97047;-77
2023/08/06 04:13:23;;;;;;;1.25;0.90;;;;;;;26.47;44.12;100252.13;4911789;28;99245;-76
2023/08/06 04:15:49;;;;;;;1.48;0.82;;;;;;;26.47;44.50;100251.28;4910969;28;100658;-77
2023/08/06 04:18:16;;;;;;;1.20;0.80;;;;;;;26.47;44.40;100251.28;4911870;28;96735;-77
2023/08/06 04:20:44;;;;;;;0.98;0.73;;;;;;;26.47;44.58;100257.66;4908909;28;97659;-76
2023/08/06 04:23:11;;;;;;;0.80;0.63;;;;;;;26.48;44.46;100255.72;4911365;28;99576;-76
2023/08/06 04:25:39;;;;;;;1.35;0.90;;;;;;;26.47;44.33;100259.56;4905977;28;96777;-76
2023/08/06 04:28:05;;;;;;;0.70;0.60;;;;;;;26.47;44.39;100267.81;4894196;28;96872;-77
2023/08/06 04:30:32;;;;;;;0.70;0.70;;;;;;;26.47;44.46;100265.91;4913456;28;97455;-76
2023/08/06 04:32:59;;;;;;;1.17;0.70;;;;;;;26.48;44.32;100264.00;4906170;28;98985;-76
2023/08/06 04:35:26;;;;;;;1.00;0.77;;;;;;;26.46;44.65;100272.47;4912324;28;96763;-76
2023/08/06 04:37:53;;;;;;;0.90;0.80;;;;;;;26.46;44.50;100266.97;4911650;28;96829;-76
2023/08/06 04:40:19;;;;;;;0.85;0.65;;;;;;;26.47;44.34;100265.06;4913223;28;96757;-76
2023/08/06 04:42:46;;;;;;;0.90;0.70;;;;;;;26.47;44.39;100263.16;4910999;28;100177;-76
2023/08/06 04:45:12;;;;;;;0.80;0.65;;;;;;;26.46;44.29;100264.22;4911492;28;96715;-77
2023/08/06 04:47:39;;;;;;;1.10;0.90;;;;;;;26.47;44.35;100271.41;4913022;28;97687;-77
2023/08/06 04:50:06;;;;;;;0.82;0.70;;;;;;;26.47;44.37;100273.31;4902878;28;97213;-76
2023/08/06 04:52:32;;;;;;;0.70;0.70;;;;;;;26.47;44.39;100265.06;4907771;28;97712;-76
2023/08/06 04:54:59;;;;;;;1.73;0.70;;;;;;;26.47;44.54;100273.31;4909806;28;97073;-76
2023/08/06 04:57:25;;;;;;;1.20;0.80;;;;;;;26.46;44.28;100272.47;4906543;28;96633;-76
2023/08/06 04:59:52;;;;;;;0.90;0.73;;;;;;;26.47;44.39;100276.06;4909814;28;96597;-76
2023/08/06 05:02:18;;;;;;;0.70;0.63;;;;;;;26.47;44.56;100267.81;4904275;28;96888;-77
2023/08/06 05:04:45;;;;;;;1.25;0.80;;;;;;;26.46;44.59;100275.22;4904668;28;97512;-76
2023/08/06 05:07:11;;;;;;;1.13;0.88;;;;;;;26.48;44.41;100283.28;4908433;28;96799;-76
2023/08/06 05:09:38;;;;;;;0.90;0.70;;;;;;;26.47;44.50;100278.81;4912796;28;96869;-76
2023/08/06 05:12:06;;;;;;;1.20;0.90;;;;;;;26.47;44.59;100289.84;4901608;28;99046;-76
2023/08/06 05:14:33;;;;;;;1.00;0.75;;;;;;;26.46;44.46;100285.41;4901057;28;97389;-76
2023/08/06 05:17:02;;;;;;;0.90;0.77;;;;;;;26.47;44.42;100285.19;4910845;28;97110;-76
2023/08/06 05:19:28;;;;;;;0.90;0.80;;;;;;;26.46;44.50;100280.75;4906109;28;96890;-76
2023/08/06 05:21:55;;;;;;;1.00;0.80;;;;;;;26.47;44.44;100284.34;4904935;28;96650;-76
2023/08/06 05:24:21;;;;;;;0.80;0.60;;;;;;;26.47;44.51;100284.34;4909265;28;97190;-76
2023/08/06 05:26:49;;;;;;;1.00;0.90;;;;;;;26.46;44.51;100289.00;4910606;28;96833;-76
2023/08/06 05:29:16;;;;;;;0.90;0.80;;;;;;;26.47;44.42;100287.09;4903165;28;96872;-77
2023/08/06 05:31:43;;;;;;;0.90;0.68;;;;;;;26.46;44.42;100297.25;4893647;28;97853;-78
2023/08/06 05:34:09;;;;;;;0.90;0.73;;;;;;;26.47;44.52;100296.19;4902186;28;97881;-78
2023/08/06 05:36:36;;;;;;;1.17;0.80;;;;;;;26.47;44.59;100300.84;4906994;28;97794;-78
2023/08/06 05:39:02;;;;;;;1.20;0.63;;;;;;;26.47;44.33;100306.38;4912211;28;96896;-78
2023/08/06 05:41:29;;;;;;;0.90;0.70;;;;;;;26.47;44.57;100307.22;4910678;28;97932;-78
2023/08/06 05:43:55;;;;;;;0.90;0.55;;;;;;;26.47;44.18;100314.63;4900974;28;96944;-78
2023/08/06 05:46:22;;;;;;;1.08;0.85;;;;;;;26.47;44.46;100317.38;4895229;28;99258;-78
2023/08/06 05:48:49;;;;;;;1.02;0.63;;;;;;;26.46;44.50;100311.03;4899057;28;96637;-78
2023/08/06 05:51:16;;;;;;;1.20;0.88;;;;;;;26.47;44.58;100314.63;4898763;28;97631;-78
2023/08/06 05:53:43;;;;;;;1.88;0.90;;;;;;;26.47;44.53;100318.22;4903890;28;98077;-78
2023/08/06 05:56:09;;;;;;;1.30;0.90;;;;;;;26.47;44.51;100317.38;4901241;28;97163;-79
2023/08/06 05:58:36;;;;;;;1.13;0.73;;;;;;;26.46;44.48;100319.28;4899748;28;97418;-78
2023/08/06 06:01:02;;;;;;;0.77;0.70;;;;;;;26.48;44.46;100324.56;4901604;28;98528;-78
2023/08/06 06:03:29;;;;;;;1.67;0.82;;;;;;;26.47;44.44;100332.00;4901405;28;97869;-78
2023/08/06 06:05:55;;;;;;;1.60;0.70;;;;;;;26.48;44.47;100330.09;4911178;28;96692;-78
2023/08/06 06:08:22;;;;;;;1.40;0.70;;;;;;;26.47;44.47;100334.75;4902862;28;97060;-78
2023/08/06 06:10:48;;;;;;;1.20;0.90;;;;;;;26.48;44.26;100335.59;4899574;28;98020;-78
2023/08/06 06:13:15;;;;;;;0.90;0.70;;;;;;;26.48;44.44;100349.34;4900937;28;98009;-78
2023/08/06 06:15:42;;;;;;;1.15;0.77;;;;;;;26.49;44.38;100349.13;4904470;28;96885;-78
2023/08/06 06:18:08;;;;;;;1.15;0.80;;;;;;;26.48;44.15;100354.88;4896206;28;97598;-78
2023/08/06 06:20:35;;;;;;;1.10;0.70;;;;;;;26.48;44.38;100358.47;4890207;28;97941;-78
2023/08/06 06:23:01;;;;;;;1.00;0.80;;;;;;;26.48;44.49;100358.47;4890999;28;97434;-78
2023/08/06 06:25:28;;;;;;;0.80;0.63;;;;;;;26.49;44.27;100354.63;4890468;28;97358;-78
2023/08/06 06:27:54;;;;;;;1.10;0.80;;;;;;;26.49;44.39;100360.16;4900008;28;97564;-78
2023/08/06 06:30:21;;;;;;;1.27;0.90;;;;;;;26.48;44.41;100363.97;4908139;28;97237;-78
2023/08/06 06:32:48;;;;;;;1.00;0.70;;;;;;;26.50;44.38;100372.00;4908003;28;96927;-78
2023/08/06 06:35:14;;;;;;;0.80;0.65;;;;;;;26.49;44.49;100370.31;4905765;28;98534;-78
2023/08/06 06:37:41;;;;;;;0.60;0.60;;;;;;;26.49;44.43;100371.16;4914226;28;96813;-78
2023/08/06 06:40:08;;;;;;;2.13;0.73;;;;;;;26.50;44.36;100369.25;4914300;28;97376;-78
2023/08/06 06:42:34;;;;;;;0.82;0.77;;;;;;;26.50;44.49;100366.50;4914862;28;97413;-78
2023/08/06 06:45:04;;;;;;;1.00;0.70;;;;;;;26.51;44.44;100370.94;4896493;28;96898;-78
2023/08/06 06:47:31;;;;;;;1.25;0.93;;;;;;;26.50;44.49;100372.84;4905708;28;97012;-78
2023/08/06 06:49:57;;;;;;;1.30;0.80;;;;;;;26.51;44.69;100376.44;4913202;28;97983;-78
2023/08/06 06:52:24;;;;;;;1.10;0.82;;;;;;;26.51;44.56;100374.53;4907996;28;96700;-78
2023/08/06 06:54:50;;;;;;;1.33;1.00;;;;;;;26.51;44.21;100385.56;4913110;28;96765;-78
2023/08/06 06:57:17;;;;;;;1.27;0.93;;;;;;;26.52;44.54;100380.88;4914780;28;96956;-78
2023/08/06 06:59:43;;;;;;;1.40;1.00;;;;;;;26.51;44.43;100382.81;4913972;28;96957;-78
2023/08/06 07:02:10;;;;;;;0.90;0.80;;;;;;;26.51;44.43;100385.56;4913665;28;97284;-78
2023/08/06 07:04:36;;;;;;;1.30;0.95;;;;;;;26.52;44.53;100383.63;4912783;28;96900;-78
2023/08/06 07:07:03;;;;;;;1.30;1.00;;;;;;;26.53;44.17;100396.34;4914993;28;96957;-78
2023/08/06 07:09:30;;;;;;;1.83;0.82;;;;;;;26.51;44.39;100392.97;4913861;28;97552;-78
2023/08/06 07:11:57;;;;;;;0.98;0.80;;;;;;;26.52;44.55;100395.50;4913741;28;96850;-78
2023/08/06 07:14:25;;;;;;;1.35;0.80;;;;;;;26.51;44.44;100399.31;4914017;28;96881;-78
2023/08/06 07:16:52;;;;;;;1.60;0.90;;;;;;;26.52;44.53;100401.00;4913191;28;97541;-78
2023/08/06 07:19:18;;;;;;;1.42;1.05;;;;;;;26.50;44.60;100400.38;4912439;28;97767;-78
2023/08/06 07:21:45;;;;;;;1.67;0.80;;;;;;;26.52;44.83;100403.75;4912118;28;97248;-78
2023/08/06 07:24:12;;;;;;;1.67;0.85;;;;;;;26.52;44.62;100400.16;4913538;28;96951;-78
2023/08/06 07:26:38;;;;;;;1.00;0.82;;;;;;;26.51;44.33;100413.09;4897027;28;97413;-78
2023/08/06 07:29:05;;;;;;;1.45;0.85;;;;;;;26.52;44.44;100416.69;4914243;28;96964;-78
2023/08/06 07:31:31;;;;;;;0.90;0.80;;;;;;;26.51;44.46;100403.97;4911846;28;96768;-78
2023/08/06 07:33:58;;;;;;;1.48;0.95;;;;;;;26.51;44.48;100406.75;4911783;28;96931;-78
2023/08/06 07:36:24;;;;;;;2.50;0.90;;;;;;;26.51;44.72;100407.59;4910904;28;96870;-78
2023/08/06 07:38:55;;;;;;;1.40;1.00;;;;;;;26.51;44.34;100418.59;4906629;28;96986;-78
2023/08/06 07:41:23;;;;;;;1.10;0.75;;;;;;;26.51;44.48;100418.59;4911328;28;97821;-78
2023/08/06 07:43:49;;;;;;;2.97;1.00;;;;;;;26.51;44.90;100417.75;4906644;28;96632;-78
2023/08/06 07:46:16;;;;;;;1.80;1.15;;;;;;;26.52;44.44;100425.78;4913513;28;97108;-78
2023/08/06 07:48:42;;;;;;;1.20;0.90;;;;;;;26.52;44.47;100425.78;4913652;28;97396;-78
2023/08/06 07:51:09;;;;;;;1.40;1.00;;;;;;;26.52;44.48;100419.44;4914068;28;96815;-78
2023/08/06 07:53:35;;;;;;;1.15;0.82;;;;;;;26.51;44.55;100421.34;4909637;28;96702;-78
2023/08/06 07:56:02;;;;;;;1.55;0.90;;;;;;;26.51;44.27;100426.84;4912460;28;97946;-78
2023/08/06 07:58:29;;;;;;;1.23;0.85;;;;;;;26.51;44.49;100424.09;4911429;28;98948;-78
2023/08/06 08:00:56;;;;;;;2.13;0.98;;;;;;;26.51;44.38;100417.75;4910818;28;99266;-78
2023/08/06 08:03:22;;;;;;;1.40;0.90;;;;;;;26.52;44.32;100420.28;4911949;28;96968;-78
2023/08/06 08:05:49;;;;;;;1.17;0.93;;;;;;;26.51;44.48;100421.34;4912612;28;96962;-78
2023/08/06 08:08:15;;;;;;;1.38;1.10;;;;;;;26.52;44.54;100422.19;4912679;28;98050;-78
2023/08/06 08:10:42;;;;;;;1.67;1.30;;;;;;;26.51;44.60;100424.09;4912330;28;98311;-78
2023/08/06 08:13:08;;;;;;;2.08;0.88;;;;;;;26.51;44.47;100429.63;4912848;28;96989;-78
2023/08/06 08:15:36;;;;;;;3.63;1.00;;;;;;;26.51;44.19;100432.38;4911804;28;96887;-78
2023/08/06 08:18:02;;;;;;;1.13;0.80;;;;;;;26.51;44.45;100428.78;4912978;28;96963;-78
2023/08/06 08:20:31;;;;;;;1.52;1.00;;;;;;;26.50;44.54;100438.94;4911746;28;98007;-78
2023/08/06 08:23:02;;;;;;;2.22;1.35;;;;;;;26.51;44.42;100442.53;4892955;28;97229;-78
2023/08/06 08:25:29;;;;;;;1.52;1.08;;;;;;;26.50;44.55;100446.38;4910312;28;96983;-78
2023/08/06 08:27:57;;;;;;;1.27;1.10;;;;;;;26.49;44.42;100440.00;4912751;28;97668;-78
2023/08/06 08:30:24;;;;;;;1.15;1.05;;;;;;;26.50;44.44;100443.59;4895620;28;99665;-78
2023/08/06 08:32:52;;;;;;;1.30;1.20;;;;;;;26.50;44.73;100444.44;4894568;28;99582;-78
2023/08/06 08:35:18;;;;;;;1.52;1.20;;;;;;;26.50;44.50;100449.97;4892118;28;98038;-78
2023/08/06 08:37:45;;;;;;;1.13;0.90;;;;;;;26.49;44.55;100451.03;4893987;28;98715;-78
2023/08/06 08:40:11;;;;;;;1.45;1.10;;;;;;;26.49;44.40;100456.53;4893961;28;98961;-78
2023/08/06 08:42:38;;;;;;;1.02;0.93;;;;;;;26.49;44.66;100463.94;4893123;28;97181;-78
2023/08/06 08:45:11;;;;;;;1.05;0.88;;;;;;;26.49;44.51;100458.44;4893924;28;98541;-78
2023/08/06 08:47:38;;;;;;;1.17;0.90;;;;;;;26.48;44.50;100463.09;4881808;28;99028;-78
2023/08/06 08:50:06;;;;;;;1.60;1.13;;;;;;;26.49;44.62;100467.56;4893427;28;97042;-78
2023/08/06 08:52:35;;;;;;;2.67;1.00;;;;;;;26.48;44.44;100467.78;4892710;28;98475;-78
2023/08/06 08:55:02;;;;;;;1.70;1.17;;;;;;;26.47;44.53;100477.94;4892717;28;97860;-78
2023/08/06 08:57:28;;;;;;;1.75;0.88;;;;;;;26.47;45.22;100472.44;4893620;28;97797;-78
2023/08/06 08:59:55;;;;;;;1.55;1.23;;;;;;;26.46;44.51;100487.28;4893006;28;98134;-78
2023/08/06 09:02:24;;;;;;;1.90;1.20;;;;;;;26.46;44.53;100492.78;4900858;28;96846;-79
2023/08/06 09:04:52;;;;;;;1.25;1.13;;;;;;;26.48;44.63;100495.31;4910062;28;97455;-79
2023/08/06 09:07:21;;;;;;;1.05;0.88;;;;;;;26.47;44.52;100510.16;4911443;28;97072;-80
2023/08/06 09:09:49;;;;;;;1.67;0.98;;;;;;;26.46;44.50;100495.53;4911423;28;98226;-79
2023/08/06 09:12:16;;;;;;;1.50;1.00;;;;;;;26.46;44.48;100500.19;4903167;28;96916;-80
2023/08/06 09:14:43;;;;;;;0.90;0.80;;;;;;;26.46;44.59;100502.94;4910455;28;98617;-79
2023/08/06 09:17:13;;;;;;;1.38;1.13;;;;;;;26.46;44.42;100509.31;4902219;28;96980;-80
2023/08/06 09:19:45;;;;;;;1.42;0.90;;;;;;;26.46;44.60;100511.22;4900638;28;96885;-80
2023/08/06 09:22:13;;;;;;;1.85;1.10;;;;;;;26.46;44.51;100513.97;4886462;28;97363;-80
2023/08/06 09:24:41;;;;;;;1.30;1.20;;;;;;;26.45;44.48;100512.28;4905927;28;96885;-79
2023/08/06 09:27:13;;;;;;;1.30;0.88;;;;;;;26.46;44.63;100514.81;4909564;28;97834;-80
2023/08/06 09:29:41;;;;;;;1.48;1.30;;;;;;;26.45;44.62;100517.78;4916666;28;98758;-81
2023/08/06 09:32:08;;;;;;;1.17;1.00;;;;;;;26.44;44.72;100511.44;4900645;28;97679;-80
2023/08/06 09:34:35;;;;;;;1.15;1.00;;;;;;;26.44;44.46;100510.59;4916337;28;96740;-80
2023/08/06 09:37:03;;;;;;;1.52;1.10;;;;;;;26.45;44.34;100524.13;4922302;28;96954;-80
2023/08/06 09:39:30;;;;;;;2.03;1.20;;;;;;;26.44;44.62;100522.44;4921757;28;97443;-79
2023/08/06 09:42:00;;;;;;;1.85;1.00;;;;;;;26.44;44.65;100525.19;4911369;28;96802;-79
2023/08/06 09:44:28;;;;;;;2.13;1.30;;;;;;;26.44;44.75;100530.72;4890986;28;96998;-79
2023/08/06 09:46:56;;;;;;;1.95;0.93;;;;;;;26.43;44.61;100534.53;4902002;28;96874;-79
2023/08/06 09:49:32;;;;;;;2.38;1.10;;;;;;;26.43;44.50;100537.28;4909176;28;97513;-80
2023/08/06 09:51:59;;;;;;;2.63;1.30;;;;;;;26.43;44.50;100541.94;4907649;28;97175;-80
2023/08/06 09:54:28;;;;;;;1.58;1.15;;;;;;;26.42;44.62;100538.34;4906177;28;96878;-79
2023/08/06 09:56:55;;;;;;;1.65;1.02;;;;;;;26.42;44.65;100541.09;4905252;28;97564;-79
2023/08/06 09:59:25;;;;;;;1.48;1.10;;;;;;;26.42;44.68;100543.84;4906491;28;97180;-78
2023/08/06 10:01:54;;;;;;;1.65;0.80;;;;;;;26.42;44.64;100545.75;4909709;28;97418;-79
2023/08/06 10:04:21;;;;;;;1.30;0.90;;;;;;;26.42;44.70;100545.75;4908534;28;96616;-79
2023/08/06 10:06:52;;;;;;;1.80;1.10;;;;;;;26.42;44.60;100543.84;4907266;28;99390;-79
2023/08/06 10:09:20;;;;;;;1.50;1.30;;;;;;;26.43;44.93;100552.97;4906531;28;96771;-79
2023/08/06 10:11:50;;;;;;;1.27;1.05;;;;;;;26.43;44.72;100555.72;4911701;28;97162;-79
2023/08/06 10:14:26;;;;;;;2.08;1.25;;;;;;;26.42;44.62;100549.34;4890170;28;97052;-80
2023/08/06 10:16:55;;;;;;;1.45;1.10;;;;;;;26.42;44.64;100549.34;4900150;28;98091;-79
2023/08/06 10:19:24;;;;;;;1.48;1.10;;;;;;;26.42;44.42;100552.13;4906943;28;97420;-80
2023/08/06 10:22:11;;;;;;;1.38;1.00;;;;;;;26.42;44.68;100546.59;4908729;28;97301;-79
2023/08/06 10:24:55;;;;;;;1.25;1.10;;;;;;;26.41;44.74;100555.94;4911603;28;97058;-79
2023/08/06 10:27:25;;;;;;;2.42;1.50;;;;;;;26.42;44.66;100554.03;4908552;28;97260;-79
2023/08/06 10:29:51;;;;;;;1.48;1.05;;;;;;;26.42;44.54;100557.63;4909057;28;98206;-79
2023/08/06 10:32:18;;;;;;;1.98;1.00;;;;;;;26.42;45.00;100563.13;4896145;28;96761;-80
2023/08/06 10:34:57;;;;;;;1.77;1.10;;;;;;;26.43;44.78;100564.81;4906104;28;97769;-80
2023/08/06 10:37:34;;;;;;;1.40;1.10;;;;;;;26.43;44.67;100572.22;4914610;28;98555;-79
2023/08/06 10:40:01;;;;;;;1.60;1.00;;;;;;;26.43;44.78;100570.31;4906595;28;97439;-78
2023/08/06 10:42:29;;;;;;;1.88;1.38;;;;;;;26.44;44.66;100565.66;4908805;28;96625;-77
2023/08/06 10:45:16;;;;;;;1.23;1.10;;;;;;;26.44;44.55;100571.16;4907647;28;96946;-77
2023/08/06 10:47:44;;;;;;;2.05;1.15;;;;;;;26.43;44.76;100578.59;4910685;28;96759;-77
2023/08/06 10:50:13;;;;;;;1.67;1.10;;;;;;;26.43;44.75;100575.84;4907747;28;96739;-78
2023/08/06 10:52:40;;;;;;;1.63;1.10;;;;;;;26.43;44.75;100583.25;4900233;28;97222;-78
2023/08/06 10:55:07;;;;;;;1.20;1.08;;;;;;;26.43;44.70;100589.59;4902311;28;98543;-79
2023/08/06 10:57:33;;;;;;;1.90;1.33;;;;;;;26.44;44.90;100591.28;4906763;28;98355;-79
2023/08/06 11:00:00;;;;;;;1.88;1.27;;;;;;;26.43;44.87;100589.59;4905974;28;97067;-78
2023/08/06 11:02:33;;;;;;;1.40;1.00;;;;;;;26.45;44.68;100600.41;4902896;28;98600;-78
2023/08/06 11:05:07;;;;;;;2.97;1.20;;;;;;;26.44;44.73;100601.47;4904484;28;96920;-79
2023/08/06 11:07:35;;;;;;;1.58;1.40;;;;;;;26.43;44.65;100597.03;4906032;28;99422;-78
2023/08/06 11:10:06;;;;;;;1.10;1.00;;;;;;;26.44;44.79;100602.31;4895271;28;97701;-79
2023/08/06 11:12:34;;;;;;;1.77;1.00;;;;;;;26.44;44.82;100607.81;4910005;28;97038;-79
2023/08/06 11:15:01;;;;;;;2.20;1.17;;;;;;;26.44;44.66;100607.81;4909293;28;96940;-78
2023/08/06 11:17:29;;;;;;;1.33;1.00;;;;;;;26.44;44.72;100610.56;4910221;28;96663;-78
2023/08/06 11:19:59;;;;;;;1.17;0.95;;;;;;;26.44;44.57;100609.72;4911593;28;97793;-78
2023/08/06 11:22:26;;;;;;;1.30;1.00;;;;;;;26.43;44.78;100610.78;4913828;28;98372;-78
2023/08/06 11:24:53;;;;;;;2.05;1.20;;;;;;;26.43;44.63;100616.28;4911138;28;96977;-78
2023/08/06 11:27:20;;;;;;;2.45;1.10;;;;;;;26.43;44.85;100613.53;4888745;28;97074;-78